Time;durP1;ratioP1;P1;durP2;ratioP2;P2;SDS_P1;SDS_P2;PMS_P1;PMS_P2;Temp;Humidity;BMP_temperature;BMP_pressure;BME280_temperature;BME280_humidity;BME280_pressure;Samples;Min_cycle;Max_cycle;Signal;HPM_P1;HPM_P2
2022/10/14 00:04:06;;;;;;;0.10;0.10;;;;;;;12.02;100.00;101429.91;10372654;28;20034;-75
2022/10/14 00:09:08;;;;;;;0.00;0.00;;;;;;;12.02;100.00;101433.41;10372607;28;20128;-75
2022/10/14 00:14:14;;;;;;;0.10;0.10;;;;;;;12.00;100.00;101444.22;10370958;28;20022;-73
2022/10/14 00:19:15;;;;;;;0.10;0.10;;;;;;;12.00;100.00;101432.69;10372278;28;20033;-75
2022/10/14 00:24:16;;;;;;;0.10;0.10;;;;;;;11.99;100.00;101431.88;10370512;28;20055;-74
2022/10/14 00:29:17;;;;;;;0.08;0.08;;;;;;;11.98;100.00;101434.69;10371681;28;20026;-75
2022/10/14 00:34:18;;;;;;;0.10;0.10;;;;;;;11.97;100.00;101428.50;10371489;28;20041;-75
2022/10/14 00:39:18;;;;;;;0.00;0.00;;;;;;;11.98;100.00;101434.69;10371509;28;20053;-74
2022/10/14 00:44:19;;;;;;;0.10;0.10;;;;;;;11.97;100.00;101435.69;10371344;28;20060;-75
2022/10/14 00:49:20;;;;;;;0.10;0.10;;;;;;;11.96;100.00;101440.19;10371117;28;20418;-75
2022/10/14 00:54:30;;;;;;;0.10;0.10;;;;;;;11.95;100.00;101426.97;10369472;28;20029;-75
2022/10/14 00:59:40;;;;;;;0.00;0.00;;;;;;;11.94;100.00;101422.63;10370653;28;20022;-76
2022/10/14 01:04:43;;;;;;;0.10;0.10;;;;;;;11.92;100.00;101421.94;10370291;28;20176;-75
2022/10/14 01:09:58;;;;;;;0.10;0.10;;;;;;;11.84;100.00;101422.69;10370119;28;20381;-76
2022/10/14 01:15:21;;;;;;;0.10;0.10;;;;;;;11.79;100.00;101420.47;10370135;28;20097;-74
2022/10/14 01:20:40;;;;;;;0.00;0.00;;;;;;;11.72;100.00;101426.56;10369943;28;20160;-75
2022/10/14 01:25:56;;;;;;;0.10;0.10;;;;;;;11.70;100.00;101428.56;10368173;28;20034;-75
2022/10/14 01:31:08;;;;;;;0.10;0.10;;;;;;;11.70;100.00;101424.06;10338646;28;20026;-76
2022/10/14 01:36:11;;;;;;;0.10;0.10;;;;;;;11.71;100.00;101428.41;10346909;28;20022;-76
2022/10/14 01:41:21;;;;;;;0.10;0.10;;;;;;;11.73;100.00;101415.75;10368351;28;20037;-76
2022/10/14 01:46:25;;;;;;;0.10;0.10;;;;;;;11.74;100.00;101416.59;10367229;28;20466;-75
2022/10/14 01:51:34;;;;;;;0.10;0.10;;;;;;;11.77;100.00;101416.28;10369293;28;20026;-75
2022/10/14 01:56:34;;;;;;;0.10;0.10;;;;;;;11.77;100.00;101405.59;10335692;28;20036;-75
2022/10/14 02:01:35;;;;;;;0.10;0.10;;;;;;;11.74;100.00;101405.91;10344757;28;20105;-75
2022/10/14 02:06:38;;;;;;;0.00;0.00;;;;;;;11.75;100.00;101410.25;10368484;28;20537;-74
2022/10/14 02:11:49;;;;;;;0.10;0.10;;;;;;;11.76;100.00;101404.78;10368396;28;20129;-75
2022/10/14 02:17:00;;;;;;;0.10;0.10;;;;;;;11.77;100.00;101392.25;10368616;28;20279;-76
2022/10/14 02:22:14;;;;;;;0.10;0.10;;;;;;;11.78;100.00;101401.97;10368148;28;20075;-75
2022/10/14 02:27:17;;;;;;;0.10;0.10;;;;;;;11.77;100.00;101389.59;10368051;28;20049;-76
2022/10/14 02:32:21;;;;;;;0.10;0.10;;;;;;;11.78;100.00;101388.63;10368548;28;20127;-75
2022/10/14 02:37:24;;;;;;;0.10;0.10;;;;;;;11.78;100.00;101391.28;10366566;28;20049;-75
2022/10/14 02:42:26;;;;;;;0.10;0.10;;;;;;;11.78;100.00;101384.13;10366453;28;20065;-75
2022/10/14 02:47:27;;;;;;;0.10;0.10;;;;;;;11.79;100.00;101388.44;10346988;28;20393;-74
2022/10/14 02:52:27;;;;;;;0.00;0.00;;;;;;;11.79;100.00;101385.78;10354497;28;20017;-75
2022/10/14 02:57:28;;;;;;;0.10;0.10;;;;;;;11.80;100.00;101391.94;10368429;28;20092;-76
2022/10/14 03:02:28;;;;;;;0.10;0.10;;;;;;;11.78;100.00;101393.97;10368109;28;20551;-76
2022/10/14 03:07:29;;;;;;;0.10;0.10;;;;;;;11.78;100.00;101380.63;10368164;28;20133;-75
2022/10/14 03:12:29;;;;;;;0.00;0.00;;;;;;;11.76;100.00;101378.09;10368100;28;20025;-75
2022/10/14 03:17:30;;;;;;;0.10;0.10;;;;;;;11.74;100.00;101380.06;10368688;28;20032;-74
2022/10/14 03:22:31;;;;;;;0.00;0.00;;;;;;;11.74;100.00;101381.88;10367581;28;20787;-74
2022/10/14 03:27:31;;;;;;;0.10;0.10;;;;;;;11.73;100.00;101378.38;10373853;28;20686;-76
2022/10/14 03:32:31;;;;;;;0.00;0.00;;;;;;;11.71;100.00;101371.53;10375145;28;20022;-75
2022/10/14 03:37:35;;;;;;;0.00;0.00;;;;;;;11.69;100.00;101369.03;10374846;28;20030;-76
2022/10/14 03:42:35;;;;;;;0.10;0.10;;;;;;;11.67;100.00;101365.66;10375117;28;20026;-75
2022/10/14 03:47:36;;;;;;;0.00;0.00;;;;;;;11.66;100.00;101369.31;10374546;28;20100;-75
2022/10/14 03:52:36;;;;;;;0.10;0.10;;;;;;;11.65;100.00;101359.63;10374280;28;20030;-75
2022/10/14 03:57:37;;;;;;;0.10;0.10;;;;;;;11.65;100.00;101361.47;10373964;28;20022;-74
2022/10/14 04:02:37;;;;;;;0.10;0.10;;;;;;;11.59;100.00;101362.09;10334273;28;20022;-74
2022/10/14 04:07:38;;;;;;;0.10;0.10;;;;;;;11.59;100.00;101359.41;10332882;28;20393;-74
2022/10/14 04:12:42;;;;;;;0.10;0.10;;;;;;;11.59;100.00;101354.91;10332667;28;20019;-74
2022/10/14 04:17:43;;;;;;;0.10;0.10;;;;;;;11.62;100.00;101356.44;10332274;28;20028;-76
2022/10/14 04:22:43;;;;;;;0.10;0.10;;;;;;;11.61;100.00;101355.59;10330354;28;20466;-76
2022/10/14 04:27:43;;;;;;;0.10;0.10;;;;;;;11.59;100.00;101351.41;10330540;28;20042;-76
2022/10/14 04:32:45;;;;;;;0.10;0.10;;;;;;;11.59;100.00;101357.56;10331683;28;20026;-76
2022/10/14 04:37:45;;;;;;;0.10;0.10;;;;;;;11.60;100.00;101358.41;10331159;28;20026;-75
2022/10/14 04:42:45;;;;;;;0.10;0.10;;;;;;;11.63;100.00;101352.75;10365254;28;20232;-76
2022/10/14 04:47:46;;;;;;;0.10;0.10;;;;;;;11.64;100.00;101349.97;10370279;28;20392;-75
2022/10/14 04:52:47;;;;;;;0.10;0.10;;;;;;;11.67;100.00;101349.66;10366869;28;20265;-76
2022/10/14 04:57:47;;;;;;;0.10;0.10;;;;;;;11.68;100.00;101347.81;10331477;28;20672;-76
2022/10/14 05:02:48;;;;;;;0.10;0.10;;;;;;;11.68;100.00;101340.63;10330519;28;20030;-76
2022/10/14 05:07:48;;;;;;;0.10;0.10;;;;;;;11.71;100.00;101344.84;10330618;28;20073;-76
2022/10/14 05:12:48;;;;;;;0.00;0.00;;;;;;;11.70;100.00;101336.00;10330553;28;20022;-74
2022/10/14 05:17:49;;;;;;;0.10;0.10;;;;;;;11.71;100.00;101339.50;10328779;28;20093;-75
2022/10/14 05:22:49;;;;;;;0.10;0.10;;;;;;;11.73;100.00;101325.00;10328677;28;20138;-75
2022/10/14 05:27:49;;;;;;;0.10;0.10;;;;;;;11.74;100.00;101326.69;10329720;28;20034;-75
2022/10/14 05:32:49;;;;;;;0.00;0.00;;;;;;;11.74;100.00;101324.00;10365460;28;20028;-75
2022/10/14 05:37:55;;;;;;;0.10;0.10;;;;;;;11.74;100.00;101329.34;10369512;28;20324;-75
2022/10/14 05:42:55;;;;;;;0.10;0.10;;;;;;;11.76;100.00;101331.88;10368683;28;20084;-75
2022/10/14 05:47:55;;;;;;;0.10;0.10;;;;;;;11.75;100.00;101323.03;10369553;28;20026;-74
2022/10/14 05:52:56;;;;;;;0.10;0.10;;;;;;;11.75;100.00;101325.72;10370794;28;20018;-74
2022/10/14 05:57:57;;;;;;;0.10;0.10;;;;;;;11.74;100.00;101318.66;10347850;28;20026;-74
2022/10/14 06:02:57;;;;;;;0.00;0.00;;;;;;;11.75;100.00;101322.16;10328378;28;20296;-75
2022/10/14 06:07:57;;;;;;;0.00;0.00;;;;;;;11.76;100.00;101323.88;10328230;28;20029;-75
2022/10/14 06:12:58;;;;;;;0.10;0.10;;;;;;;11.75;100.00;101319.50;10328064;28;20022;-75
2022/10/14 06:17:58;;;;;;;0.10;0.10;;;;;;;11.76;100.00;101315.88;10347679;28;20440;-75
2022/10/14 06:22:59;;;;;;;0.10;0.10;;;;;;;11.77;100.00;101317.53;10368556;28;20038;-74
2022/10/14 06:28:04;;;;;;;0.10;0.10;;;;;;;11.82;100.00;101317.06;10368437;28;20030;-75
2022/10/14 06:33:04;;;;;;;0.10;0.10;;;;;;;11.86;100.00;101313.13;10368624;28;20075;-76
2022/10/14 06:38:04;;;;;;;0.10;0.10;;;;;;;11.89;100.00;101315.47;10368292;28;20034;-76
2022/10/14 06:43:05;;;;;;;0.00;0.00;;;;;;;11.93;100.00;101320.38;10368930;28;20092;-76
2022/10/14 06:48:05;;;;;;;0.10;0.10;;;;;;;11.95;100.00;101312.19;10367516;28;20037;-76
2022/10/14 06:53:06;;;;;;;0.10;0.10;;;;;;;11.97;100.00;101313.72;10367531;28;20041;-75
2022/10/14 06:58:06;;;;;;;0.10;0.10;;;;;;;11.99;100.00;101311.72;10367486;28;20026;-75
2022/10/14 07:03:06;;;;;;;0.10;0.10;;;;;;;12.01;100.00;101319.56;10375397;28;20033;-74
2022/10/14 07:08:06;;;;;;;0.10;0.10;;;;;;;12.03;100.00;101306.91;10375546;28;20032;-75
2022/10/14 07:13:07;;;;;;;0.10;0.10;;;;;;;12.06;100.00;101308.44;10374576;28;20088;-75
2022/10/14 07:18:07;;;;;;;0.10;0.10;;;;;;;12.08;100.00;101312.63;10349109;28;20113;-75
2022/10/14 07:23:07;;;;;;;0.10;0.10;;;;;;;12.10;100.00;101310.63;10333787;28;20035;-75
2022/10/14 07:28:08;;;;;;;0.00;0.00;;;;;;;12.14;100.00;101317.31;10334182;28;20334;-75
2022/10/14 07:33:08;;;;;;;0.10;0.10;;;;;;;12.16;100.00;101315.34;10333418;28;20522;-75
2022/10/14 07:38:08;;;;;;;0.05;0.05;;;;;;;12.19;100.00;101327.56;10333346;28;20352;-75
2022/10/14 07:43:09;;;;;;;0.10;0.10;;;;;;;12.22;100.00;101317.38;10330384;28;20026;-75
2022/10/14 07:48:09;;;;;;;0.10;0.10;;;;;;;12.27;100.00;101319.56;10332924;28;20098;-75
2022/10/14 07:53:09;;;;;;;0.10;0.10;;;;;;;12.34;100.00;101330.47;10335201;28;20441;-75
2022/10/14 07:58:10;;;;;;;0.08;0.08;;;;;;;12.38;100.00;101337.16;10363842;28;20484;-74
2022/10/14 08:03:11;;;;;;;0.10;0.10;;;;;;;12.43;100.00;101329.53;10337622;28;20030;-74
2022/10/14 08:08:12;;;;;;;0.00;0.00;;;;;;;12.48;100.00;101329.03;10346962;28;20025;-74
2022/10/14 08:13:12;;;;;;;0.10;0.10;;;;;;;12.56;100.00;101324.56;10340169;28;20033;-76
2022/10/14 08:18:12;;;;;;;0.10;0.10;;;;;;;12.74;100.00;101321.81;10355294;28;20029;-75
2022/10/14 08:23:13;;;;;;;0.10;0.10;;;;;;;13.05;100.00;101308.69;10348411;28;20022;-74
2022/10/14 08:28:14;;;;;;;0.10;0.10;;;;;;;13.43;100.00;101314.47;10343541;28;20172;-75
2022/10/14 08:33:14;;;;;;;0.10;0.10;;;;;;;13.83;100.00;101302.09;10349055;28;20018;-73
2022/10/14 08:38:14;;;;;;;0.10;0.10;;;;;;;14.13;100.00;101302.38;10358668;28;20384;-73
2022/10/14 08:43:35;;;;;;;0.10;0.10;;;;;;;14.70;100.00;101310.28;10350079;28;20032;-74
2022/10/14 08:48:37;;;;;;;0.10;0.10;;;;;;;14.67;100.00;101303.41;10349311;28;20022;-74
2022/10/14 08:53:43;;;;;;;0.00;0.00;;;;;;;14.40;100.00;101307.34;10345360;28;20100;-75
2022/10/14 08:58:52;;;;;;;0.00;0.00;;;;;;;14.18;100.00;101306.22;10343831;28;20044;-75
2022/10/14 09:03:58;;;;;;;0.10;0.10;;;;;;;13.97;100.00;101301.41;10339632;28;20052;-75
2022/10/14 09:09:34;;;;;;;0.10;0.10;;;;;;;13.93;100.00;101302.78;10350125;28;20061;-74
2022/10/14 09:14:38;;;;;;;0.10;0.10;;;;;;;14.46;100.00;101292.44;10346293;28;20085;-75
2022/10/14 09:19:48;;;;;;;0.10;0.10;;;;;;;15.02;100.00;101293.19;10342148;28;20033;-75
2022/10/14 09:24:48;;;;;;;0.10;0.10;;;;;;;14.98;100.00;101293.69;10352770;28;20427;-74
2022/10/14 09:30:00;;;;;;;0.10;0.10;;;;;;;14.70;100.00;101299.56;10352624;28;20054;-75
2022/10/14 09:35:01;;;;;;;0.00;0.00;;;;;;;14.40;100.00;101299.31;10345883;28;20089;-74
2022/10/14 09:40:07;;;;;;;0.10;0.10;;;;;;;14.12;100.00;101290.00;10349701;28;20058;-74
2022/10/14 09:45:17;;;;;;;0.10;0.10;;;;;;;13.95;100.00;101298.06;10350944;28;20022;-74
2022/10/14 09:50:42;;;;;;;0.00;0.00;;;;;;;13.83;100.00;101286.03;10342859;28;20161;-74
2022/10/14 09:55:48;;;;;;;0.10;0.10;;;;;;;13.80;100.00;101286.38;10337856;28;20025;-74
2022/10/14 10:00:55;;;;;;;0.10;0.10;;;;;;;13.81;100.00;101282.69;10351073;28;20022;-75
2022/10/14 10:06:02;;;;;;;0.10;0.10;;;;;;;13.90;100.00;101275.47;10348565;28;20060;-75
2022/10/14 10:11:09;;;;;;;0.00;0.00;;;;;;;14.08;100.00;101273.44;10350020;28;20029;-74
2022/10/14 10:16:17;;;;;;;0.00;0.00;;;;;;;14.31;100.00;101267.34;10341182;28;20034;-74
2022/10/14 10:21:24;;;;;;;0.10;0.10;;;;;;;14.46;100.00;101266.44;10352232;28;20443;-74
2022/10/14 10:26:30;;;;;;;0.08;0.08;;;;;;;14.53;100.00;101261.25;10324185;28;20053;-75
2022/10/14 10:31:47;;;;;;;0.10;0.10;;;;;;;14.45;100.00;101266.59;10332027;28;20173;-75
2022/10/14 10:36:56;;;;;;;0.10;0.10;;;;;;;14.55;100.00;101267.28;10342701;28;20023;-75
2022/10/14 10:42:15;;;;;;;0.10;0.10;;;;;;;14.55;100.00;101261.94;10346470;28;20030;-75
2022/10/14 10:47:44;;;;;;;0.10;0.10;;;;;;;14.50;100.00;101253.53;10346064;28;20049;-75
2022/10/14 10:53:02;;;;;;;0.10;0.10;;;;;;;14.34;100.00;101256.25;10325216;28;20541;-75
2022/10/14 10:58:36;;;;;;;0.10;0.10;;;;;;;14.11;100.00;101256.16;10336599;28;20140;-75
2022/10/14 11:03:42;;;;;;;0.10;0.10;;;;;;;13.96;100.00;101259.59;10354163;28;20133;-75
2022/10/14 11:14:32;;;;;;;0.10;0.10;;;;;;;13.96;100.00;101239.97;10347324;28;20031;-75
2022/10/14 11:19:38;;;;;;;0.00;0.00;;;;;;;14.01;100.00;101243.81;10336971;28;20055;-75
2022/10/14 11:24:57;;;;;;;0.10;0.10;;;;;;;13.95;100.00;101241.81;10346224;28;20027;-74
2022/10/14 11:30:05;;;;;;;0.10;0.10;;;;;;;13.90;100.00;101241.50;10345024;28;20037;-74
2022/10/14 11:35:32;;;;;;;0.10;0.10;;;;;;;13.92;100.00;101228.78;10332185;28;20081;-74
2022/10/14 11:41:26;;;;;;;0.10;0.10;;;;;;;14.04;100.00;101232.75;10337203;28;20031;-74
2022/10/14 11:46:31;;;;;;;0.10;0.10;;;;;;;14.37;100.00;101218.41;10334992;28;20026;-74
2022/10/14 11:51:59;;;;;;;0.10;0.10;;;;;;;14.84;100.00;101215.69;10349656;28;20780;-73
2022/10/14 11:57:18;;;;;;;0.10;0.10;;;;;;;15.23;100.00;101213.88;10350646;28;20026;-74
2022/10/14 12:02:31;;;;;;;0.00;0.00;;;;;;;15.31;100.00;101214.66;10340935;28;20058;-74
2022/10/14 12:07:56;;;;;;;0.05;0.05;;;;;;;15.37;100.00;101208.56;10337192;28;20022;-74
2022/10/14 12:12:59;;;;;;;0.10;0.10;;;;;;;15.12;100.00;101202.53;10320033;28;20029;-74
2022/10/14 12:18:00;;;;;;;0.10;0.10;;;;;;;14.97;100.00;101195.47;10314542;28;20649;-74
2022/10/14 12:23:02;;;;;;;0.00;0.00;;;;;;;14.89;100.00;101188.31;10344826;28;20026;-73
2022/10/14 12:28:04;;;;;;;0.00;0.00;;;;;;;14.89;100.00;101185.63;10357424;28;20069;-73
2022/10/14 12:33:07;;;;;;;0.00;0.00;;;;;;;15.04;100.00;101177.63;10349806;28;20037;-74
2022/10/14 12:38:10;;;;;;;0.10;0.10;;;;;;;15.20;100.00;101177.50;10342643;28;20026;-73
2022/10/14 12:43:22;;;;;;;0.00;0.00;;;;;;;15.20;100.00;101174.00;10348111;28;20029;-73
2022/10/14 12:48:26;;;;;;;0.00;0.00;;;;;;;15.21;100.00;101178.34;10342055;28;20026;-74
2022/10/14 12:53:31;;;;;;;;;;;;;;;15.16;100.00;101181.59;10339743;28;20022;-74
2022/10/14 12:58:39;;;;;;;0.10;0.10;;;;;;;14.91;100.00;101179.06;10342410;28;19916;-74
2022/10/14 13:04:01;;;;;;;0.10;0.10;;;;;;;14.84;100.00;101177.31;10345956;28;20025;-73
2022/10/14 13:09:10;;;;;;;0.10;0.10;;;;;;;14.69;100.00;101174.56;10355208;28;20065;-74
2022/10/14 13:14:28;;;;;;;0.10;0.10;;;;;;;14.51;100.00;101156.00;10359212;28;20477;-73
2022/10/14 13:19:32;;;;;;;0.10;0.10;;;;;;;14.38;100.00;101147.72;10346953;28;20303;-73
2022/10/14 13:24:41;;;;;;;0.10;0.10;;;;;;;14.42;100.00;101143.69;10346141;28;20022;-73
2022/10/14 13:30:01;;;;;;;0.10;0.10;;;;;;;14.71;100.00;101134.97;10347744;28;20097;-73
2022/10/14 13:35:20;;;;;;;0.10;0.10;;;;;;;14.93;100.00;101118.03;10342460;28;20058;-73
2022/10/14 13:40:38;;;;;;;0.10;0.10;;;;;;;14.87;100.00;101116.09;10333252;28;20482;-74
2022/10/14 13:45:42;;;;;;;0.10;0.10;;;;;;;14.73;100.00;101100.78;10343214;28;20022;-73
2022/10/14 13:50:43;;;;;;;;;;;;;;;14.71;100.00;101092.06;10345358;28;20449;-74
2022/10/14 13:55:51;;;;;;;0.10;0.10;;;;;;;14.61;100.00;101088.81;10348673;28;19996;-73
2022/10/14 14:01:01;;;;;;;0.10;0.10;;;;;;;14.48;100.00;101086.69;10355757;28;20022;-73
2022/10/14 14:06:09;;;;;;;0.10;0.10;;;;;;;14.31;100.00;101074.41;10344286;28;20026;-73
2022/10/14 14:11:16;;;;;;;0.00;0.00;;;;;;;14.13;100.00;101069.31;10337188;28;20026;-73
2022/10/14 14:16:23;;;;;;;0.10;0.10;;;;;;;14.01;100.00;101061.69;10333439;28;20168;-73
2022/10/14 14:21:26;;;;;;;0.10;0.10;;;;;;;13.97;100.00;101051.53;10339980;28;20080;-73
2022/10/14 14:26:37;;;;;;;0.10;0.10;;;;;;;13.96;100.00;101045.34;10340111;28;20022;-73
2022/10/14 14:31:37;;;;;;;0.10;0.10;;;;;;;13.90;100.00;101039.81;10347808;28;20017;-73
2022/10/14 14:36:39;;;;;;;0.10;0.10;;;;;;;13.84;100.00;101035.19;10345544;28;20033;-73
2022/10/14 14:41:48;;;;;;;0.10;0.10;;;;;;;13.81;100.00;101033.69;10346663;28;20037;-72
2022/10/14 14:46:50;;;;;;;0.00;0.00;;;;;;;13.75;100.00;101026.34;10349505;28;20516;-73
2022/10/14 14:51:51;;;;;;;0.10;0.10;;;;;;;13.69;100.00;101017.19;10331764;28;20029;-73
2022/10/14 14:57:04;;;;;;;0.10;0.10;;;;;;;13.66;100.00;101006.00;10340298;28;20041;-73
2022/10/14 15:02:15;;;;;;;0.10;0.10;;;;;;;13.60;100.00;101004.84;10331387;28;20038;-73
2022/10/14 15:07:23;;;;;;;0.00;0.00;;;;;;;13.55;100.00;100989.28;10344216;28;20045;-73
2022/10/14 15:12:41;;;;;;;0.10;0.10;;;;;;;13.50;100.00;100997.03;10337923;28;20019;-73
2022/10/14 15:17:44;;;;;;;0.10;0.10;;;;;;;13.47;100.00;101001.91;10354799;28;20104;-73
2022/10/14 15:22:49;;;;;;;0.10;0.10;;;;;;;13.44;100.00;100991.53;10346174;28;20404;-73
2022/10/14 15:27:54;;;;;;;0.10;0.10;;;;;;;13.41;100.00;100976.69;10358047;28;20026;-74
2022/10/14 15:32:57;;;;;;;0.10;0.10;;;;;;;13.38;100.00;100973.50;10348917;28;20026;-73
2022/10/14 15:37:58;;;;;;;0.10;0.10;;;;;;;13.36;100.00;100966.50;10337914;28;20030;-74
2022/10/14 15:42:58;;;;;;;0.10;0.10;;;;;;;13.36;100.00;100961.13;10351425;28;20053;-72
2022/10/14 15:48:04;;;;;;;0.10;0.10;;;;;;;13.36;100.00;100957.63;10357264;28;20030;-73
2022/10/14 15:53:05;;;;;;;0.10;0.10;;;;;;;13.35;100.00;100947.91;10344744;28;20046;-73
2022/10/14 15:58:05;;;;;;;0.10;0.10;;;;;;;13.33;100.00;100939.25;10338677;28;20025;-73
2022/10/14 16:03:06;;;;;;;0.10;0.10;;;;;;;13.27;100.00;100938.09;10355658;28;20287;-74
2022/10/14 16:08:12;;;;;;;0.10;0.10;;;;;;;13.24;100.00;100932.25;10347754;28;20057;-73
2022/10/14 16:13:13;;;;;;;0.10;0.10;;;;;;;13.18;100.00;100928.44;10338293;28;20021;-74
2022/10/14 16:18:14;;;;;;;0.10;0.10;;;;;;;13.13;100.00;100928.09;10355815;28;20032;-72
2022/10/14 16:23:23;;;;;;;0.00;0.00;;;;;;;13.08;100.00;100917.91;10342823;28;20057;-74
2022/10/14 16:28:23;;;;;;;0.10;0.10;;;;;;;13.04;100.00;100915.78;10359321;28;20481;-73
2022/10/14 16:33:23;;;;;;;0.10;0.10;;;;;;;13.01;100.00;100921.47;10344727;28;20013;-72
2022/10/14 16:38:24;;;;;;;0.00;0.00;;;;;;;12.98;100.00;100911.94;10368733;28;20022;-72
2022/10/14 16:43:25;;;;;;;0.00;0.00;;;;;;;12.95;100.00;100898.94;10360643;28;20049;-71
2022/10/14 16:48:26;;;;;;;0.10;0.10;;;;;;;12.91;100.00;100885.09;10331342;28;20358;-72
2022/10/14 16:53:43;;;;;;;0.10;0.10;;;;;;;12.90;100.00;100890.59;10344142;28;20021;-72
2022/10/14 16:58:44;;;;;;;0.00;0.00;;;;;;;12.87;100.00;100885.59;10365477;28;20028;-71
2022/10/14 17:03:44;;;;;;;0.10;0.10;;;;;;;12.83;100.00;100893.13;10347027;28;20517;-72
2022/10/14 17:08:44;;;;;;;0.10;0.10;;;;;;;12.82;100.00;100890.59;10327773;28;20048;-71
2022/10/14 17:13:45;;;;;;;0.00;0.00;;;;;;;12.75;100.00;100878.97;10326573;28;20037;-72
2022/10/14 17:18:45;;;;;;;0.10;0.10;;;;;;;12.75;100.00;100878.97;10330012;28;20374;-71
2022/10/14 17:23:46;;;;;;;0.10;0.10;;;;;;;12.74;100.00;100880.81;10348710;28;20316;-72
2022/10/14 17:28:47;;;;;;;0.10;0.10;;;;;;;12.73;100.00;100880.97;10334500;28;20030;-72
2022/10/14 17:33:49;;;;;;;0.03;0.03;;;;;;;12.66;100.00;100854.09;10325757;28;20022;-72
2022/10/14 17:38:50;;;;;;;0.10;0.10;;;;;;;12.72;100.00;100850.72;10327208;28;20022;-72
2022/10/14 17:43:53;;;;;;;0.00;0.00;;;;;;;12.73;100.00;100844.38;10325571;28;20048;-72
2022/10/14 17:48:55;;;;;;;0.00;0.00;;;;;;;12.77;100.00;100848.38;10346977;28;20121;-72
2022/10/14 17:54:01;;;;;;;0.10;0.10;;;;;;;12.93;100.00;100850.13;10351955;28;20049;-73
2022/10/14 17:59:09;;;;;;;0.10;0.10;;;;;;;13.08;100.00;100842.22;10366374;28;20109;-72
2022/10/14 18:04:09;;;;;;;0.10;0.10;;;;;;;13.19;100.00;100833.78;10365237;28;20033;-72
2022/10/14 18:09:10;;;;;;;0.10;0.10;;;;;;;13.31;100.00;100837.75;10365760;28;20036;-73
2022/10/14 18:14:12;;;;;;;0.00;0.00;;;;;;;13.34;100.00;100836.59;10365097;28;20017;-73
2022/10/14 18:19:15;;;;;;;0.00;0.00;;;;;;;13.29;100.00;100836.28;10359311;28;20424;-74
2022/10/14 18:24:16;;;;;;;0.10;0.10;;;;;;;13.17;100.00;100834.97;10353974;28;20105;-73
2022/10/14 18:29:16;;;;;;;0.10;0.10;;;;;;;13.05;100.00;100831.88;10342189;28;20018;-74
2022/10/14 18:34:16;;;;;;;0.10;0.10;;;;;;;12.96;100.00;100825.72;10324082;28;20098;-74
2022/10/14 18:39:18;;;;;;;0.10;0.10;;;;;;;12.90;100.00;100823.75;10324440;28;20493;-75
2022/10/14 18:44:19;;;;;;;0.10;0.10;;;;;;;12.85;100.00;100820.75;10322406;28;20441;-76
2022/10/14 18:49:19;;;;;;;0.10;0.10;;;;;;;12.80;100.00;100810.63;10332574;28;20026;-76
2022/10/14 18:54:22;;;;;;;0.10;0.10;;;;;;;12.75;100.00;100798.78;10350983;28;20025;-76
2022/10/14 18:59:23;;;;;;;0.10;0.10;;;;;;;12.70;100.00;100796.63;10338932;28;20270;-76
2022/10/14 19:04:26;;;;;;;0.10;0.10;;;;;;;12.67;100.00;100795.13;10363826;28;20477;-76
2022/10/14 19:09:28;;;;;;;0.08;0.08;;;;;;;12.65;100.00;100786.47;10373740;28;20417;-75
2022/10/14 19:14:30;;;;;;;0.10;0.10;;;;;;;12.67;100.00;100784.44;10373143;28;20386;-75
2022/10/14 19:19:30;;;;;;;0.10;0.10;;;;;;;12.69;100.00;100779.75;10365379;28;20088;-76
2022/10/14 19:24:31;;;;;;;0.10;0.10;;;;;;;12.69;100.00;100776.25;10357414;28;20112;-75
2022/10/14 19:29:31;;;;;;;0.00;0.00;;;;;;;12.71;100.00;100766.19;10372514;28;20393;-76
2022/10/14 19:34:31;;;;;;;0.10;0.10;;;;;;;12.72;100.00;100757.19;10364256;28;20013;-75
2022/10/14 19:39:32;;;;;;;0.10;0.10;;;;;;;12.73;100.00;100758.03;10371719;28;20018;-75
2022/10/14 19:44:32;;;;;;;0.10;0.10;;;;;;;12.70;100.00;100740.50;10348411;28;20285;-75
2022/10/14 19:49:32;;;;;;;0.10;0.10;;;;;;;12.71;100.00;100722.59;10329957;28;20038;-75
2022/10/14 19:54:33;;;;;;;0.10;0.10;;;;;;;12.69;100.00;100691.56;10364708;28;20014;-75
2022/10/14 19:59:33;;;;;;;0.10;0.10;;;;;;;12.68;100.00;100705.06;10371593;28;20025;-75
2022/10/14 20:04:33;;;;;;;0.10;0.10;;;;;;;12.68;100.00;100697.94;10367050;28;20463;-75
2022/10/14 20:09:34;;;;;;;0.10;0.10;;;;;;;12.69;100.00;100685.38;10350716;28;20385;-75
2022/10/14 20:14:34;;;;;;;0.10;0.10;;;;;;;12.71;100.00;100682.53;10329254;28;20261;-76
2022/10/14 20:19:36;;;;;;;0.10;0.10;;;;;;;12.71;100.00;100674.50;10327653;28;20019;-75
2022/10/14 20:24:38;;;;;;;0.10;0.10;;;;;;;12.71;100.00;100680.69;10361262;28;20114;-75
2022/10/14 20:29:39;;;;;;;0.10;0.10;;;;;;;12.68;100.00;100676.53;10357520;28;20022;-75
2022/10/14 20:34:39;;;;;;;0.10;0.10;;;;;;;12.66;100.00;100662.53;10367931;28;20435;-75
2022/10/14 20:39:40;;;;;;;0.10;0.10;;;;;;;12.68;100.00;100656.97;10369855;28;20485;-75
2022/10/14 20:44:40;;;;;;;0.10;0.10;;;;;;;12.69;100.00;100666.69;10368759;28;20022;-75
2022/10/14 20:49:41;;;;;;;0.10;0.10;;;;;;;12.69;100.00;100664.00;10342801;28;20391;-75
2022/10/14 20:54:42;;;;;;;0.00;0.00;;;;;;;12.69;100.00;100664.00;10359421;28;20393;-74
2022/10/14 20:59:42;;;;;;;0.10;0.10;;;;;;;12.66;100.00;100667.84;10358449;28;20025;-75
2022/10/14 21:04:47;;;;;;;0.10;0.10;;;;;;;12.68;100.00;100665.00;10327804;28;20026;-74
2022/10/14 21:09:47;;;;;;;0.10;0.10;;;;;;;12.69;100.00;100658.66;10326525;28;20168;-74
2022/10/14 21:14:48;;;;;;;0.00;0.00;;;;;;;12.72;100.00;100657.47;10327709;28;20180;-75
2022/10/14 21:19:48;;;;;;;0.10;0.10;;;;;;;12.73;100.00;100648.44;10327638;28;20483;-75
2022/10/14 21:24:49;;;;;;;0.10;0.10;;;;;;;12.76;100.00;100645.41;10335765;28;20117;-75
2022/10/14 21:29:49;;;;;;;0.10;0.10;;;;;;;12.77;100.00;100649.75;10371879;23;20141;-70
2022/10/14 21:34:49;;;;;;;0.07;0.07;;;;;;;12.77;100.00;100628.34;10338640;28;20829;-70
2022/10/14 21:39:50;;;;;;;0.10;0.10;;;;;;;12.79;100.00;100629.03;10369120;28;20095;-70
2022/10/14 21:44:50;;;;;;;0.10;0.10;;;;;;;12.81;100.00;100629.69;10367941;28;20025;-70
2022/10/14 21:49:50;;;;;;;0.10;0.10;;;;;;;12.81;100.00;100622.50;10368899;28;20405;-72
2022/10/14 21:54:50;;;;;;;0.10;0.10;;;;;;;12.82;100.00;100615.28;10367327;28;20327;-69
2022/10/14 21:59:51;;;;;;;0.10;0.10;;;;;;;12.83;100.00;100619.66;10362747;28;20432;-69
2022/10/14 22:04:51;;;;;;;0.10;0.10;;;;;;;12.83;100.00;100609.78;10361245;28;20018;-70
2022/10/14 22:09:51;;;;;;;0.10;0.10;;;;;;;12.85;100.00;100606.91;10368105;28;20056;-69
2022/10/14 22:14:52;;;;;;;0.10;0.10;;;;;;;12.86;100.00;100617.44;10367015;28;20025;-70
2022/10/14 22:19:52;;;;;;;0.10;0.10;;;;;;;12.85;100.00;100612.25;10368281;28;20116;-70
2022/10/14 22:24:52;;;;;;;0.00;0.00;;;;;;;12.85;100.00;100590.88;10366633;28;20419;-70
2022/10/14 22:29:53;;;;;;;0.10;0.10;;;;;;;12.84;100.00;100591.91;10364614;28;20026;-70
2022/10/14 22:34:53;;;;;;;0.10;0.10;;;;;;;12.81;100.00;100590.41;10338117;28;20621;-70
2022/10/14 22:39:53;;;;;;;0.10;0.10;;;;;;;12.82;100.00;100585.91;10327081;28;20027;-70
2022/10/14 22:44:54;;;;;;;0.10;0.10;;;;;;;12.84;100.00;100587.38;10325321;28;20018;-70
2022/10/14 22:49:54;;;;;;;0.07;0.07;;;;;;;12.87;100.00;100583.53;10326758;28;20080;-70
2022/10/14 22:54:54;;;;;;;0.10;0.10;;;;;;;12.87;100.00;100584.34;10325226;28;20436;-70
2022/10/14 22:59:54;;;;;;;0.10;0.10;;;;;;;12.89;100.00;100579.66;10325616;28;20485;-70
2022/10/14 23:04:55;;;;;;;0.10;0.10;;;;;;;12.89;100.00;100574.31;10360135;28;20018;-71
2022/10/14 23:10:32;;;;;;;0.10;0.10;;;;;;;12.91;100.00;100574.97;10356928;28;20117;-71